sensor_id;sensor_type;location;lat;lon;timestamp;temperature;humidity
15857;DHT22;8028;53.612;10.038;2022-08-21T00:02:18;15.60;1.00
15857;DHT22;8028;53.612;10.038;2022-08-21T00:04:44;15.60;1.00
15857;DHT22;8028;53.612;10.038;2022-08-21T00:07:11;15.60;1.00
15857;DHT22;8028;53.612;10.038;2022-08-21T00:09:37;15.50;1.00
15857;DHT22;8028;53.612;10.038;2022-08-21T00:12:03;15.50;1.00
15857;DHT22;8028;53.612;10.038;2022-08-21T00:14:30;15.50;1.00
15857;DHT22;8028;53.612;10.038;2022-08-21T00:16:56;15.40;1.00
15857;DHT22;8028;53.612;10.038;2022-08-21T00:19:22;15.50;1.00
15857;DHT22;8028;53.612;10.038;2022-08-21T00:21:51;15.40;92.80
15857;DHT22;8028;53.612;10.038;2022-08-21T00:24:18;15.50;99.90
15857;DHT22;8028;53.612;10.038;2022-08-21T00:26:44;15.50;99.90
15857;DHT22;8028;53.612;10.038;2022-08-21T00:29:09;15.40;99.90
15857;DHT22;8028;53.612;10.038;2022-08-21T00:31:36;15.40;99.90
15857;DHT22;8028;53.612;10.038;2022-08-21T00:34:02;15.40;99.90
15857;DHT22;8028;53.612;10.038;2022-08-21T00:36:29;15.30;99.90
15857;DHT22;8028;53.612;10.038;2022-08-21T00:38:55;15.30;99.90
15857;DHT22;8028;53.612;10.038;2022-08-21T00:41:21;15.30;99.90
15857;DHT22;8028;53.612;10.038;2022-08-21T00:43:49;15.30;99.90
15857;DHT22;8028;53.612;10.038;2022-08-21T00:46:15;15.30;1.00
15857;DHT22;8028;53.612;10.038;2022-08-21T00:48:41;15.30;99.90
15857;DHT22;8028;53.612;10.038;2022-08-21T00:51:10;15.40;99.90
15857;DHT22;8028;53.612;10.038;2022-08-21T00:53:40;15.30;99.90
15857;DHT22;8028;53.612;10.038;2022-08-21T00:56:08;15.30;99.90
15857;DHT22;8028;53.612;10.038;2022-08-21T00:58:36;15.30;99.90
15857;DHT22;8028;53.612;10.038;2022-08-21T01:01:04;15.30;99.90
15857;DHT22;8028;53.612;10.038;2022-08-21T01:03:31;15.30;99.90
15857;DHT22;8028;53.612;10.038;2022-08-21T01:05:57;15.30;99.90
15857;DHT22;8028;53.612;10.038;2022-08-21T01:08:23;15.30;99.90
15857;DHT22;8028;53.612;10.038;2022-08-21T01:10:50;15.30;1.00
15857;DHT22;8028;53.612;10.038;2022-08-21T01:13:18;15.30;99.90
15857;DHT22;8028;53.612;10.038;2022-08-21T01:15:46;15.30;99.90
15857;DHT22;8028;53.612;10.038;2022-08-21T01:18:14;15.40;99.90
15857;DHT22;8028;53.612;10.038;2022-08-21T01:20:44;15.30;1.00
15857;DHT22;8028;53.612;10.038;2022-08-21T01:23:11;15.30;99.90
15857;DHT22;8028;53.612;10.038;2022-08-21T01:25:37;15.30;1.00
15857;DHT22;8028;53.612;10.038;2022-08-21T01:28:13;15.30;99.90
15857;DHT22;8028;53.612;10.038;2022-08-21T01:30:40;15.20;1.00
15857;DHT22;8028;53.612;10.038;2022-08-21T01:33:07;15.20;1.00
15857;DHT22;8028;53.612;10.038;2022-08-21T01:35:33;15.20;1.00
15857;DHT22;8028;53.612;10.038;2022-08-21T01:37:59;15.20;1.00
15857;DHT22;8028;53.612;10.038;2022-08-21T01:40:25;15.20;1.00
15857;DHT22;8028;53.612;10.038;2022-08-21T01:42:50;15.20;1.00
15857;DHT22;8028;53.612;10.038;2022-08-21T01:45:16;15.20;1.00
15857;DHT22;8028;53.612;10.038;2022-08-21T01:47:43;15.20;1.00
15857;DHT22;8028;53.612;10.038;2022-08-21T01:50:12;15.10;1.00
15857;DHT22;8028;53.612;10.038;2022-08-21T01:52:38;15.20;1.00
15857;DHT22;8028;53.612;10.038;2022-08-21T01:55:06;15.10;1.00
15857;DHT22;8028;53.612;10.038;2022-08-21T01:57:33;15.20;1.00
15857;DHT22;8028;53.612;10.038;2022-08-21T01:59:58;15.10;1.00
15857;DHT22;8028;53.612;10.038;2022-08-21T02:02:24;15.00;1.00
15857;DHT22;8028;53.612;10.038;2022-08-21T02:04:50;15.00;99.90
15857;DHT22;8028;53.612;10.038;2022-08-21T02:07:16;15.00;99.90
15857;DHT22;8028;53.612;10.038;2022-08-21T02:09:41;15.00;99.90
15857;DHT22;8028;53.612;10.038;2022-08-21T02:12:08;15.00;99.90
15857;DHT22;8028;53.612;10.038;2022-08-21T02:14:34;15.10;99.90
15857;DHT22;8028;53.612;10.038;2022-08-21T02:17:00;15.00;99.90
15857;DHT22;8028;53.612;10.038;2022-08-21T02:19:26;15.00;99.90
15857;DHT22;8028;53.612;10.038;2022-08-21T02:21:51;14.90;99.90
15857;DHT22;8028;53.612;10.038;2022-08-21T02:24:17;14.90;1.00
15857;DHT22;8028;53.612;10.038;2022-08-21T02:26:42;14.80;1.00
15857;DHT22;8028;53.612;10.038;2022-08-21T02:29:08;14.80;1.00
15857;DHT22;8028;53.612;10.038;2022-08-21T02:31:34;14.80;1.00
15857;DHT22;8028;53.612;10.038;2022-08-21T02:33:59;14.70;1.00
15857;DHT22;8028;53.612;10.038;2022-08-21T02:36:25;14.70;1.00
15857;DHT22;8028;53.612;10.038;2022-08-21T02:38:51;14.70;1.00
15857;DHT22;8028;53.612;10.038;2022-08-21T02:41:19;14.70;1.00
15857;DHT22;8028;53.612;10.038;2022-08-21T02:43:46;14.70;1.00
15857;DHT22;8028;53.612;10.038;2022-08-21T02:46:15;14.80;1.00
15857;DHT22;8028;53.612;10.038;2022-08-21T02:48:41;14.80;1.00
15857;DHT22;8028;53.612;10.038;2022-08-21T02:51:15;14.80;1.00
15857;DHT22;8028;53.612;10.038;2022-08-21T02:53:43;14.80;1.00
15857;DHT22;8028;53.612;10.038;2022-08-21T02:56:12;14.90;1.00
15857;DHT22;8028;53.612;10.038;2022-08-21T02:58:43;14.90;1.00
15857;DHT22;8028;53.612;10.038;2022-08-21T03:01:10;14.90;99.90
15857;DHT22;8028;53.612;10.038;2022-08-21T03:03:38;14.80;1.00
15857;DHT22;8028;53.612;10.038;2022-08-21T03:06:05;14.80;1.00
15857;DHT22;8028;53.612;10.038;2022-08-21T03:08:31;14.70;1.00
15857;DHT22;8028;53.612;10.038;2022-08-21T03:10:57;14.70;1.00
15857;DHT22;8028;53.612;10.038;2022-08-21T03:13:26;14.50;1.00
15857;DHT22;8028;53.612;10.038;2022-08-21T03:15:52;14.60;1.00
15857;DHT22;8028;53.612;10.038;2022-08-21T03:18:18;14.50;1.00
15857;DHT22;8028;53.612;10.038;2022-08-21T03:20:45;14.50;1.00
15857;DHT22;8028;53.612;10.038;2022-08-21T03:23:12;14.50;1.00
15857;DHT22;8028;53.612;10.038;2022-08-21T03:25:39;14.50;1.00
15857;DHT22;8028;53.612;10.038;2022-08-21T03:28:07;14.50;1.00
15857;DHT22;8028;53.612;10.038;2022-08-21T03:30:33;14.60;1.00
15857;DHT22;8028;53.612;10.038;2022-08-21T03:32:59;14.60;1.00
15857;DHT22;8028;53.612;10.038;2022-08-21T03:35:27;14.50;1.00
15857;DHT22;8028;53.612;10.038;2022-08-21T03:37:53;14.50;1.00
15857;DHT22;8028;53.612;10.038;2022-08-21T03:40:21;14.50;1.00
15857;DHT22;8028;53.612;10.038;2022-08-21T03:42:47;14.50;1.00
15857;DHT22;8028;53.612;10.038;2022-08-21T03:45:17;14.50;1.00
15857;DHT22;8028;53.612;10.038;2022-08-21T03:47:56;14.50;1.00
15857;DHT22;8028;53.612;10.038;2022-08-21T03:50:25;14.40;1.00
15857;DHT22;8028;53.612;10.038;2022-08-21T03:52:52;14.40;1.00
15857;DHT22;8028;53.612;10.038;2022-08-21T03:55:17;14.40;1.00
15857;DHT22;8028;53.612;10.038;2022-08-21T03:57:43;14.40;1.00
15857;DHT22;8028;53.612;10.038;2022-08-21T04:00:11;14.40;1.00
15857;DHT22;8028;53.612;10.038;2022-08-21T04:02:38;14.40;1.00
15857;DHT22;8028;53.612;10.038;2022-08-21T04:05:04;14.40;1.00
15857;DHT22;8028;53.612;10.038;2022-08-21T04:07:30;14.50;1.00
15857;DHT22;8028;53.612;10.038;2022-08-21T04:09:55;14.50;1.00
15857;DHT22;8028;53.612;10.038;2022-08-21T04:12:21;14.40;1.00
15857;DHT22;8028;53.612;10.038;2022-08-21T04:14:47;14.30;1.00
15857;DHT22;8028;53.612;10.038;2022-08-21T04:17:13;14.20;1.00
15857;DHT22;8028;53.612;10.038;2022-08-21T04:19:38;14.30;18.00
15857;DHT22;8028;53.612;10.038;2022-08-21T04:22:04;14.30;95.80
15857;DHT22;8028;53.612;10.038;2022-08-21T04:24:29;14.30;99.90
15857;DHT22;8028;53.612;10.038;2022-08-21T04:26:55;14.30;1.00
15857;DHT22;8028;53.612;10.038;2022-08-21T04:29:21;14.30;1.00
15857;DHT22;8028;53.612;10.038;2022-08-21T04:31:46;14.30;1.00
15857;DHT22;8028;53.612;10.038;2022-08-21T04:34:12;14.40;44.30
15857;DHT22;8028;53.612;10.038;2022-08-21T04:36:38;14.50;1.00
15857;DHT22;8028;53.612;10.038;2022-08-21T04:39:04;14.50;1.00
15857;DHT22;8028;53.612;10.038;2022-08-21T04:41:30;14.60;1.00
15857;DHT22;8028;53.612;10.038;2022-08-21T04:43:55;14.70;1.00
15857;DHT22;8028;53.612;10.038;2022-08-21T04:46:22;14.80;99.90
15857;DHT22;8028;53.612;10.038;2022-08-21T04:48:47;14.90;99.90
15857;DHT22;8028;53.612;10.038;2022-08-21T04:51:19;14.90;1.00
15857;DHT22;8028;53.612;10.038;2022-08-21T04:56:24;15.00;1.00
15857;DHT22;8028;53.612;10.038;2022-08-21T04:58:53;15.10;1.00
15857;DHT22;8028;53.612;10.038;2022-08-21T05:01:22;15.20;1.00
15857;DHT22;8028;53.612;10.038;2022-08-21T05:03:52;15.30;99.90
15857;DHT22;8028;53.612;10.038;2022-08-21T05:06:20;15.40;93.30
15857;DHT22;8028;53.612;10.038;2022-08-21T05:08:47;15.40;1.00
15857;DHT22;8028;53.612;10.038;2022-08-21T05:11:14;15.40;1.00
15857;DHT22;8028;53.612;10.038;2022-08-21T05:13:40;15.50;1.00
15857;DHT22;8028;53.612;10.038;2022-08-21T05:16:09;15.60;1.00
15857;DHT22;8028;53.612;10.038;2022-08-21T05:18:34;15.70;1.00
15857;DHT22;8028;53.612;10.038;2022-08-21T05:21:00;15.80;1.00
15857;DHT22;8028;53.612;10.038;2022-08-21T05:23:26;15.90;99.90
15857;DHT22;8028;53.612;10.038;2022-08-21T05:25:52;16.00;99.30
15857;DHT22;8028;53.612;10.038;2022-08-21T05:28:18;16.10;1.00
15857;DHT22;8028;53.612;10.038;2022-08-21T05:30:45;16.20;1.00
15857;DHT22;8028;53.612;10.038;2022-08-21T05:33:11;16.30;1.00
15857;DHT22;8028;53.612;10.038;2022-08-21T05:35:37;16.40;1.00
15857;DHT22;8028;53.612;10.038;2022-08-21T05:38:05;16.50;99.90
15857;DHT22;8028;53.612;10.038;2022-08-21T05:40:31;16.60;1.00
15857;DHT22;8028;53.612;10.038;2022-08-21T05:42:57;16.60;48.10
15857;DHT22;8028;53.612;10.038;2022-08-21T05:45:27;16.60;1.00
15857;DHT22;8028;53.612;10.038;2022-08-21T05:47:52;16.60;1.00
15857;DHT22;8028;53.612;10.038;2022-08-21T05:50:18;16.60;1.00
15857;DHT22;8028;53.612;10.038;2022-08-21T05:52:44;16.60;1.00
15857;DHT22;8028;53.612;10.038;2022-08-21T05:55:10;16.80;1.00
15857;DHT22;8028;53.612;10.038;2022-08-21T05:57:35;16.90;99.90
15857;DHT22;8028;53.612;10.038;2022-08-21T06:00:03;17.40;1.00
15857;DHT22;8028;53.612;10.038;2022-08-21T06:02:39;17.90;1.00
15857;DHT22;8028;53.612;10.038;2022-08-21T06:05:05;18.20;1.00
15857;DHT22;8028;53.612;10.038;2022-08-21T06:07:31;18.30;99.90
15857;DHT22;8028;53.612;10.038;2022-08-21T06:09:57;18.50;1.00
15857;DHT22;8028;53.612;10.038;2022-08-21T06:12:22;18.70;64.70
15857;DHT22;8028;53.612;10.038;2022-08-21T06:14:48;18.90;1.00
15857;DHT22;8028;53.612;10.038;2022-08-21T06:17:16;19.00;99.90
15857;DHT22;8028;53.612;10.038;2022-08-21T06:19:41;19.30;99.90
15857;DHT22;8028;53.612;10.038;2022-08-21T06:22:07;19.40;99.90
15857;DHT22;8028;53.612;10.038;2022-08-21T06:24:33;19.40;1.00
15857;DHT22;8028;53.612;10.038;2022-08-21T06:27:04;19.40;1.00
15857;DHT22;8028;53.612;10.038;2022-08-21T06:29:30;19.20;1.00
15857;DHT22;8028;53.612;10.038;2022-08-21T06:31:55;19.10;1.00
15857;DHT22;8028;53.612;10.038;2022-08-21T06:34:21;19.10;1.00
15857;DHT22;8028;53.612;10.038;2022-08-21T06:36:47;19.20;99.90
15857;DHT22;8028;53.612;10.038;2022-08-21T06:39:13;19.10;1.00
15857;DHT22;8028;53.612;10.038;2022-08-21T06:41:39;19.00;1.00
15857;DHT22;8028;53.612;10.038;2022-08-21T06:44:05;19.10;1.00
15857;DHT22;8028;53.612;10.038;2022-08-21T06:46:31;19.10;99.90
15857;DHT22;8028;53.612;10.038;2022-08-21T06:48:57;19.10;99.90
15857;DHT22;8028;53.612;10.038;2022-08-21T06:51:24;19.00;1.00
15857;DHT22;8028;53.612;10.038;2022-08-21T06:53:51;18.80;1.00
15857;DHT22;8028;53.612;10.038;2022-08-21T06:56:17;18.80;99.90
15857;DHT22;8028;53.612;10.038;2022-08-21T06:58:43;18.70;99.90
15857;DHT22;8028;53.612;10.038;2022-08-21T07:01:09;18.60;1.00
15857;DHT22;8028;53.612;10.038;2022-08-21T07:03:38;18.80;99.90
15857;DHT22;8028;53.612;10.038;2022-08-21T07:06:06;18.90;1.00
15857;DHT22;8028;53.612;10.038;2022-08-21T07:08:32;18.90;1.00
15857;DHT22;8028;53.612;10.038;2022-08-21T07:10:59;19.00;1.00
15857;DHT22;8028;53.612;10.038;2022-08-21T07:13:26;19.10;1.00
15857;DHT22;8028;53.612;10.038;2022-08-21T07:15:52;19.10;1.00
15857;DHT22;8028;53.612;10.038;2022-08-21T07:18:18;19.20;1.00
15857;DHT22;8028;53.612;10.038;2022-08-21T07:20:44;19.40;99.90
15857;DHT22;8028;53.612;10.038;2022-08-21T07:23:15;19.30;99.90
15857;DHT22;8028;53.612;10.038;2022-08-21T07:25:43;19.40;1.00
15857;DHT22;8028;53.612;10.038;2022-08-21T07:28:09;19.50;1.00
15857;DHT22;8028;53.612;10.038;2022-08-21T07:30:35;19.60;68.70
15857;DHT22;8028;53.612;10.038;2022-08-21T07:33:01;19.50;99.90
15857;DHT22;8028;53.612;10.038;2022-08-21T07:35:26;19.60;99.90
15857;DHT22;8028;53.612;10.038;2022-08-21T07:37:53;19.60;1.00
15857;DHT22;8028;53.612;10.038;2022-08-21T07:40:19;19.60;8.00
15857;DHT22;8028;53.612;10.038;2022-08-21T07:42:48;19.70;1.00
15857;DHT22;8028;53.612;10.038;2022-08-21T07:45:20;19.50;1.00
15857;DHT22;8028;53.612;10.038;2022-08-21T07:47:47;19.60;1.00
15857;DHT22;8028;53.612;10.038;2022-08-21T07:50:13;19.70;1.00
15857;DHT22;8028;53.612;10.038;2022-08-21T07:52:40;19.90;1.00
15857;DHT22;8028;53.612;10.038;2022-08-21T07:55:10;20.10;1.00
15857;DHT22;8028;53.612;10.038;2022-08-21T07:57:36;20.10;1.00
15857;DHT22;8028;53.612;10.038;2022-08-21T08:00:05;20.10;1.00
15857;DHT22;8028;53.612;10.038;2022-08-21T08:02:38;20.10;1.00
15857;DHT22;8028;53.612;10.038;2022-08-21T08:05:06;20.20;1.00
15857;DHT22;8028;53.612;10.038;2022-08-21T08:07:32;20.20;1.00
15857;DHT22;8028;53.612;10.038;2022-08-21T08:09:58;20.20;1.00
15857;DHT22;8028;53.612;10.038;2022-08-21T08:12:24;20.20;1.00
15857;DHT22;8028;53.612;10.038;2022-08-21T08:14:59;20.20;1.00
15857;DHT22;8028;53.612;10.038;2022-08-21T08:17:26;20.20;1.00
15857;DHT22;8028;53.612;10.038;2022-08-21T08:19:53;20.30;1.00
15857;DHT22;8028;53.612;10.038;2022-08-21T08:22:21;20.40;1.00
15857;DHT22;8028;53.612;10.038;2022-08-21T08:24:49;20.40;1.00
15857;DHT22;8028;53.612;10.038;2022-08-21T08:27:15;20.50;1.00
15857;DHT22;8028;53.612;10.038;2022-08-21T08:29:42;20.70;1.00
15857;DHT22;8028;53.612;10.038;2022-08-21T08:32:08;20.80;1.00
15857;DHT22;8028;53.612;10.038;2022-08-21T08:34:35;20.90;1.00
15857;DHT22;8028;53.612;10.038;2022-08-21T08:37:01;21.10;1.00
15857;DHT22;8028;53.612;10.038;2022-08-21T08:39:28;21.10;1.00
15857;DHT22;8028;53.612;10.038;2022-08-21T08:42:12;21.10;1.00
15857;DHT22;8028;53.612;10.038;2022-08-21T08:44:41;21.10;1.00
15857;DHT22;8028;53.612;10.038;2022-08-21T08:47:08;21.10;1.00
15857;DHT22;8028;53.612;10.038;2022-08-21T08:49:43;21.20;1.00
15857;DHT22;8028;53.612;10.038;2022-08-21T08:52:26;21.30;1.00
15857;DHT22;8028;53.612;10.038;2022-08-21T08:55:30;21.50;1.00
15857;DHT22;8028;53.612;10.038;2022-08-21T08:57:57;21.60;1.00
15857;DHT22;8028;53.612;10.038;2022-08-21T09:00:24;21.60;1.00
15857;DHT22;8028;53.612;10.038;2022-08-21T09:02:54;21.80;1.00
15857;DHT22;8028;53.612;10.038;2022-08-21T09:05:30;21.80;1.00
15857;DHT22;8028;53.612;10.038;2022-08-21T09:10:49;21.80;1.00
15857;DHT22;8028;53.612;10.038;2022-08-21T09:13:41;21.90;1.00
15857;DHT22;8028;53.612;10.038;2022-08-21T09:16:17;22.10;1.00
15857;DHT22;8028;53.612;10.038;2022-08-21T09:24:27;22.10;1.00
15857;DHT22;8028;53.612;10.038;2022-08-21T09:27:07;22.20;1.00
15857;DHT22;8028;53.612;10.038;2022-08-21T09:29:38;22.20;1.00
15857;DHT22;8028;53.612;10.038;2022-08-21T09:32:22;22.20;1.00
15857;DHT22;8028;53.612;10.038;2022-08-21T09:35:13;22.20;1.00
15857;DHT22;8028;53.612;10.038;2022-08-21T09:43:02;22.10;1.00
15857;DHT22;8028;53.612;10.038;2022-08-21T09:45:28;22.30;1.00
15857;DHT22;8028;53.612;10.038;2022-08-21T09:47:54;22.40;1.00
15857;DHT22;8028;53.612;10.038;2022-08-21T09:50:26;22.60;1.00
15857;DHT22;8028;53.612;10.038;2022-08-21T09:52:55;22.70;1.00
15857;DHT22;8028;53.612;10.038;2022-08-21T09:55:57;22.80;1.00
15857;DHT22;8028;53.612;10.038;2022-08-21T09:58:45;23.00;1.00
15857;DHT22;8028;53.612;10.038;2022-08-21T10:01:22;23.00;1.00
15857;DHT22;8028;53.612;10.038;2022-08-21T10:04:01;23.10;1.00
15857;DHT22;8028;53.612;10.038;2022-08-21T10:06:28;23.20;1.00
15857;DHT22;8028;53.612;10.038;2022-08-21T10:09:15;23.20;1.00
15857;DHT22;8028;53.612;10.038;2022-08-21T10:20:05;23.30;1.00
15857;DHT22;8028;53.612;10.038;2022-08-21T10:23:02;23.30;1.00
15857;DHT22;8028;53.612;10.038;2022-08-21T10:25:31;23.00;1.00
15857;DHT22;8028;53.612;10.038;2022-08-21T10:28:27;23.30;1.00
15857;DHT22;8028;53.612;10.038;2022-08-21T10:31:10;23.50;1.00
15857;DHT22;8028;53.612;10.038;2022-08-21T10:36:21;23.80;1.00
15857;DHT22;8028;53.612;10.038;2022-08-21T10:42:09;24.20;1.00
15857;DHT22;8028;53.612;10.038;2022-08-21T10:44:50;24.00;1.00
15857;DHT22;8028;53.612;10.038;2022-08-21T10:47:45;24.20;1.00
15857;DHT22;8028;53.612;10.038;2022-08-21T10:50:31;24.30;1.00
15857;DHT22;8028;53.612;10.038;2022-08-21T10:55:44;24.70;1.00
15857;DHT22;8028;53.612;10.038;2022-08-21T10:58:26;24.90;1.00
15857;DHT22;8028;53.612;10.038;2022-08-21T11:00:59;25.40;1.00
15857;DHT22;8028;53.612;10.038;2022-08-21T11:03:33;25.50;1.00
15857;DHT22;8028;53.612;10.038;2022-08-21T11:06:18;25.30;1.00
15857;DHT22;8028;53.612;10.038;2022-08-21T11:08:48;25.30;1.00
15857;DHT22;8028;53.612;10.038;2022-08-21T11:11:31;25.10;99.90
15857;DHT22;8028;53.612;10.038;2022-08-21T11:13:59;25.00;99.90
15857;DHT22;8028;53.612;10.038;2022-08-21T11:17:07;25.20;99.90
15857;DHT22;8028;53.612;10.038;2022-08-21T11:19:45;25.30;99.90
15857;DHT22;8028;53.612;10.038;2022-08-21T11:22:58;25.20;99.90
15857;DHT22;8028;53.612;10.038;2022-08-21T11:25:26;25.00;99.90
15857;DHT22;8028;53.612;10.038;2022-08-21T11:36:46;25.60;99.90
15857;DHT22;8028;53.612;10.038;2022-08-21T11:39:25;25.90;99.90
15857;DHT22;8028;53.612;10.038;2022-08-21T11:42:13;25.80;99.90
15857;DHT22;8028;53.612;10.038;2022-08-21T11:44:54;25.70;99.90
15857;DHT22;8028;53.612;10.038;2022-08-21T11:50:26;25.30;99.90
15857;DHT22;8028;53.612;10.038;2022-08-21T11:53:19;25.20;99.90
15857;DHT22;8028;53.612;10.038;2022-08-21T11:55:57;25.00;99.90
15857;DHT22;8028;53.612;10.038;2022-08-21T11:58:32;25.10;99.90
15857;DHT22;8028;53.612;10.038;2022-08-21T12:01:06;25.50;99.90
15857;DHT22;8028;53.612;10.038;2022-08-21T12:03:35;25.70;99.90
15857;DHT22;8028;53.612;10.038;2022-08-21T12:06:05;25.80;99.90
15857;DHT22;8028;53.612;10.038;2022-08-21T12:08:42;25.50;99.90
15857;DHT22;8028;53.612;10.038;2022-08-21T12:16:33;26.40;99.90
15857;DHT22;8028;53.612;10.038;2022-08-21T12:19:07;26.50;99.90
15857;DHT22;8028;53.612;10.038;2022-08-21T12:21:47;26.10;99.90
15857;DHT22;8028;53.612;10.038;2022-08-21T12:29:48;24.20;99.90
15857;DHT22;8028;53.612;10.038;2022-08-21T12:35:09;24.20;99.90
15857;DHT22;8028;53.612;10.038;2022-08-21T12:38:29;24.20;99.90
15857;DHT22;8028;53.612;10.038;2022-08-21T12:41:00;24.10;99.90
15857;DHT22;8028;53.612;10.038;2022-08-21T12:43:36;24.00;99.90
15857;DHT22;8028;53.612;10.038;2022-08-21T12:46:03;24.10;99.90
15857;DHT22;8028;53.612;10.038;2022-08-21T12:48:47;24.30;99.90
15857;DHT22;8028;53.612;10.038;2022-08-21T12:51:22;24.30;99.90
15857;DHT22;8028;53.612;10.038;2022-08-21T12:53:53;24.10;99.90
15857;DHT22;8028;53.612;10.038;2022-08-21T12:56:33;23.80;99.90
15857;DHT22;8028;53.612;10.038;2022-08-21T12:59:10;23.50;99.90
15857;DHT22;8028;53.612;10.038;2022-08-21T13:01:47;23.50;99.90
15857;DHT22;8028;53.612;10.038;2022-08-21T13:04:17;23.50;99.90
15857;DHT22;8028;53.612;10.038;2022-08-21T13:06:48;23.70;99.90
15857;DHT22;8028;53.612;10.038;2022-08-21T13:09:16;24.30;1.00
15857;DHT22;8028;53.612;10.038;2022-08-21T13:11:45;24.40;99.90
15857;DHT22;8028;53.612;10.038;2022-08-21T13:14:40;24.40;99.90
15857;DHT22;8028;53.612;10.038;2022-08-21T13:17:07;24.50;99.90
15857;DHT22;8028;53.612;10.038;2022-08-21T13:19:34;24.60;99.90
15857;DHT22;8028;53.612;10.038;2022-08-21T13:22:01;24.90;99.90
15857;DHT22;8028;53.612;10.038;2022-08-21T13:24:35;25.50;99.90
15857;DHT22;8028;53.612;10.038;2022-08-21T13:27:02;26.30;99.90
15857;DHT22;8028;53.612;10.038;2022-08-21T13:29:33;26.90;99.90
15857;DHT22;8028;53.612;10.038;2022-08-21T13:32:04;26.80;99.90
15857;DHT22;8028;53.612;10.038;2022-08-21T13:34:36;26.90;99.90
15857;DHT22;8028;53.612;10.038;2022-08-21T13:37:08;26.80;99.90
15857;DHT22;8028;53.612;10.038;2022-08-21T13:39:37;26.90;99.90
15857;DHT22;8028;53.612;10.038;2022-08-21T13:42:08;27.20;99.90
15857;DHT22;8028;53.612;10.038;2022-08-21T13:44:45;27.00;99.90
15857;DHT22;8028;53.612;10.038;2022-08-21T13:47:13;26.80;99.90
15857;DHT22;8028;53.612;10.038;2022-08-21T13:49:47;26.70;99.90
15857;DHT22;8028;53.612;10.038;2022-08-21T13:52:23;26.80;99.90
15857;DHT22;8028;53.612;10.038;2022-08-21T13:57:26;25.90;99.90
15857;DHT22;8028;53.612;10.038;2022-08-21T13:59:52;25.80;99.90
15857;DHT22;8028;53.612;10.038;2022-08-21T14:02:21;25.70;99.90
15857;DHT22;8028;53.612;10.038;2022-08-21T14:05:36;25.80;99.90
15857;DHT22;8028;53.612;10.038;2022-08-21T14:07:39;26.10;99.90
15857;DHT22;8028;53.612;10.038;2022-08-21T14:10:15;27.10;99.90
15857;DHT22;8028;53.612;10.038;2022-08-21T14:15:24;27.40;99.90
15857;DHT22;8028;53.612;10.038;2022-08-21T14:17:50;27.30;99.90
15857;DHT22;8028;53.612;10.038;2022-08-21T14:20:32;26.70;99.90
15857;DHT22;8028;53.612;10.038;2022-08-21T14:22:58;26.20;99.90
15857;DHT22;8028;53.612;10.038;2022-08-21T14:27:57;26.20;99.90
15857;DHT22;8028;53.612;10.038;2022-08-21T14:30:37;26.20;99.90
15857;DHT22;8028;53.612;10.038;2022-08-21T14:33:07;25.80;99.90
15857;DHT22;8028;53.612;10.038;2022-08-21T14:35:35;25.50;99.90
15857;DHT22;8028;53.612;10.038;2022-08-21T14:38:12;25.40;99.90
15857;DHT22;8028;53.612;10.038;2022-08-21T14:40:38;25.70;99.90
15857;DHT22;8028;53.612;10.038;2022-08-21T14:43:04;26.20;99.90
15857;DHT22;8028;53.612;10.038;2022-08-21T14:45:31;26.90;99.90
15857;DHT22;8028;53.612;10.038;2022-08-21T14:47:58;27.20;99.90
15857;DHT22;8028;53.612;10.038;2022-08-21T14:50:24;27.50;99.90
15857;DHT22;8028;53.612;10.038;2022-08-21T14:52:50;27.70;99.90
15857;DHT22;8028;53.612;10.038;2022-08-21T14:55:17;28.00;99.90
15857;DHT22;8028;53.612;10.038;2022-08-21T14:57:47;28.40;99.90
15857;DHT22;8028;53.612;10.038;2022-08-21T15:00:17;29.40;99.90
15857;DHT22;8028;53.612;10.038;2022-08-21T15:02:43;30.60;99.90
15857;DHT22;8028;53.612;10.038;2022-08-21T15:05:09;31.30;99.90
15857;DHT22;8028;53.612;10.038;2022-08-21T15:07:35;32.40;99.90
15857;DHT22;8028;53.612;10.038;2022-08-21T15:10:02;33.00;99.90
15857;DHT22;8028;53.612;10.038;2022-08-21T15:12:28;33.00;99.90
15857;DHT22;8028;53.612;10.038;2022-08-21T15:17:20;34.20;99.90
15857;DHT22;8028;53.612;10.038;2022-08-21T15:19:45;35.00;99.90
15857;DHT22;8028;53.612;10.038;2022-08-21T15:22:11;35.90;99.90
15857;DHT22;8028;53.612;10.038;2022-08-21T15:24:37;36.30;99.90
15857;DHT22;8028;53.612;10.038;2022-08-21T15:27:04;36.50;99.90
15857;DHT22;8028;53.612;10.038;2022-08-21T15:29:31;36.20;99.90
15857;DHT22;8028;53.612;10.038;2022-08-21T15:32:14;35.60;99.90
15857;DHT22;8028;53.612;10.038;2022-08-21T15:34:39;36.20;99.90
15857;DHT22;8028;53.612;10.038;2022-08-21T15:37:05;36.90;99.90
15857;DHT22;8028;53.612;10.038;2022-08-21T15:39:33;37.50;99.90
15857;DHT22;8028;53.612;10.038;2022-08-21T15:41:59;36.80;99.90
15857;DHT22;8028;53.612;10.038;2022-08-21T15:44:26;37.50;99.90
15857;DHT22;8028;53.612;10.038;2022-08-21T15:46:52;37.90;99.90
15857;DHT22;8028;53.612;10.038;2022-08-21T15:49:18;38.10;99.90
15857;DHT22;8028;53.612;10.038;2022-08-21T15:51:44;38.20;99.90
15857;DHT22;8028;53.612;10.038;2022-08-21T15:54:10;38.30;99.90
15857;DHT22;8028;53.612;10.038;2022-08-21T15:56:37;38.30;99.90
15857;DHT22;8028;53.612;10.038;2022-08-21T15:59:12;37.80;99.90
15857;DHT22;8028;53.612;10.038;2022-08-21T16:01:38;37.50;99.90
15857;DHT22;8028;53.612;10.038;2022-08-21T16:04:06;37.50;99.90
15857;DHT22;8028;53.612;10.038;2022-08-21T16:06:32;38.10;99.90
15857;DHT22;8028;53.612;10.038;2022-08-21T16:08:59;39.00;99.90
15857;DHT22;8028;53.612;10.038;2022-08-21T16:11:25;39.20;99.90
15857;DHT22;8028;53.612;10.038;2022-08-21T16:13:51;39.00;99.90
15857;DHT22;8028;53.612;10.038;2022-08-21T16:16:20;38.70;99.90
15857;DHT22;8028;53.612;10.038;2022-08-21T16:18:46;38.40;99.90
15857;DHT22;8028;53.612;10.038;2022-08-21T16:21:12;37.80;99.90
15857;DHT22;8028;53.612;10.038;2022-08-21T16:23:38;37.70;99.90
15857;DHT22;8028;53.612;10.038;2022-08-21T16:26:06;36.90;99.90
15857;DHT22;8028;53.612;10.038;2022-08-21T16:28:35;37.30;99.90
15857;DHT22;8028;53.612;10.038;2022-08-21T16:31:01;37.50;99.90
15857;DHT22;8028;53.612;10.038;2022-08-21T16:33:43;38.20;99.90
15857;DHT22;8028;53.612;10.038;2022-08-21T16:36:11;37.00;99.90
15857;DHT22;8028;53.612;10.038;2022-08-21T16:38:37;37.00;99.90
15857;DHT22;8028;53.612;10.038;2022-08-21T16:41:09;37.10;99.90
15857;DHT22;8028;53.612;10.038;2022-08-21T16:43:35;37.20;99.90
15857;DHT22;8028;53.612;10.038;2022-08-21T16:46:03;36.90;99.90
15857;DHT22;8028;53.612;10.038;2022-08-21T16:48:28;36.50;99.90
15857;DHT22;8028;53.612;10.038;2022-08-21T16:50:55;35.70;99.90
15857;DHT22;8028;53.612;10.038;2022-08-21T16:53:21;34.30;99.90
15857;DHT22;8028;53.612;10.038;2022-08-21T16:55:49;32.70;99.90
15857;DHT22;8028;53.612;10.038;2022-08-21T16:58:20;31.40;99.90
15857;DHT22;8028;53.612;10.038;2022-08-21T17:00:48;30.20;99.90
15857;DHT22;8028;53.612;10.038;2022-08-21T17:03:16;29.50;99.90